sensor_id;sensor_type;location;lat;lon;timestamp;pressure;altitude;pressure_sealevel;temperature;humidity
2178;BME280;1095;50.992;6.798;2022-07-22T00:01:56;101400.59;;;16.69;100.00
2178;BME280;1095;50.992;6.798;2022-07-22T00:04:27;101408.03;;;16.65;100.00
2178;BME280;1095;50.992;6.798;2022-07-22T00:06:54;101424.84;;;16.72;100.00
2178;BME280;1095;50.992;6.798;2022-07-22T00:09:26;101416.56;;;16.75;100.00
2178;BME280;1095;50.992;6.798;2022-07-22T00:12:10;101401.75;;;16.66;100.00
2178;BME280;1095;50.992;6.798;2022-07-22T00:14:41;101425.66;;;16.73;100.00
2178;BME280;1095;50.992;6.798;2022-07-22T00:17:09;101401.78;;;16.58;100.00
2178;BME280;1095;50.992;6.798;2022-07-22T00:19:48;101405.72;;;16.62;100.00
2178;BME280;1095;50.992;6.798;2022-07-22T00:22:21;101412.97;;;16.68;100.00
2178;BME280;1095;50.992;6.798;2022-07-22T00:24:49;101412.31;;;16.66;100.00
2178;BME280;1095;50.992;6.798;2022-07-22T00:27:20;101414.63;;;16.69;100.00
2178;BME280;1095;50.992;6.798;2022-07-22T00:29:47;101395.50;;;16.59;100.00
2178;BME280;1095;50.992;6.798;2022-07-22T00:32:16;101395.59;;;16.51;100.00
2178;BME280;1095;50.992;6.798;2022-07-22T00:34:43;101402.88;;;16.49;100.00
2178;BME280;1095;50.992;6.798;2022-07-22T00:37:10;101392.66;;;16.46;100.00
2178;BME280;1095;50.992;6.798;2022-07-22T00:39:36;101395.59;;;16.51;100.00
2178;BME280;1095;50.992;6.798;2022-07-22T00:42:23;101393.81;;;16.43;100.00
2178;BME280;1095;50.992;6.798;2022-07-22T00:45:23;101394.78;;;16.50;100.00
2178;BME280;1095;50.992;6.798;2022-07-22T00:47:59;101405.81;;;16.54;100.00
2178;BME280;1095;50.992;6.798;2022-07-22T00:50:31;101392.94;;;16.51;100.00
2178;BME280;1095;50.992;6.798;2022-07-22T00:53:18;101402.97;;;16.55;100.00
2178;BME280;1095;50.992;6.798;2022-07-22T00:56:10;101400.97;;;16.57;100.00
2178;BME280;1095;50.992;6.798;2022-07-22T00:58:54;101407.88;;;16.58;100.00
2178;BME280;1095;50.992;6.798;2022-07-22T01:01:55;101411.09;;;16.54;100.00
2178;BME280;1095;50.992;6.798;2022-07-22T01:04:27;101389.84;;;16.47;100.00
2178;BME280;1095;50.992;6.798;2022-07-22T01:06:53;101402.88;;;16.49;100.00
2178;BME280;1095;50.992;6.798;2022-07-22T01:09:26;101399.22;;;16.50;100.00
2178;BME280;1095;50.992;6.798;2022-07-22T01:12:01;101402.13;;;16.55;100.00
2178;BME280;1095;50.992;6.798;2022-07-22T01:14:32;101384.78;;;16.38;100.00
2178;BME280;1095;50.992;6.798;2022-07-22T01:17:01;101383.59;;;16.40;100.00
2178;BME280;1095;50.992;6.798;2022-07-22T01:19:29;101406.97;;;16.51;100.00
2178;BME280;1095;50.992;6.798;2022-07-22T01:22:00;101411.19;;;16.60;100.00
2178;BME280;1095;50.992;6.798;2022-07-22T01:24:31;101400.78;;;16.59;100.00
2178;BME280;1095;50.992;6.798;2022-07-22T01:27:02;101374.03;;;16.39;100.00
2178;BME280;1095;50.992;6.798;2022-07-22T01:32:43;101402.78;;;16.57;100.00
2178;BME280;1095;50.992;6.798;2022-07-22T01:35:39;101375.50;;;16.42;100.00
2178;BME280;1095;50.992;6.798;2022-07-22T01:38:39;101372.69;;;16.43;100.00
2178;BME280;1095;50.992;6.798;2022-07-22T01:41:43;101370.56;;;16.39;100.00
2178;BME280;1095;50.992;6.798;2022-07-22T01:44:16;101377.19;;;16.35;100.00
2178;BME280;1095;50.992;6.798;2022-07-22T01:46:51;101370.91;;;16.36;100.00
2178;BME280;1095;50.992;6.798;2022-07-22T01:49:56;101373.09;;;16.32;100.00
2178;BME280;1095;50.992;6.798;2022-07-22T01:52:23;101376.50;;;16.41;100.00
2178;BME280;1095;50.992;6.798;2022-07-22T01:54:59;101368.50;;;16.26;100.00
2178;BME280;1095;50.992;6.798;2022-07-22T01:57:30;101390.00;;;16.46;100.00
2178;BME280;1095;50.992;6.798;2022-07-22T02:00:14;101387.84;;;16.49;100.00
2178;BME280;1095;50.992;6.798;2022-07-22T02:02:54;101397.41;;;16.50;100.00
2178;BME280;1095;50.992;6.798;2022-07-22T02:05:26;101387.66;;;16.51;100.00
2178;BME280;1095;50.992;6.798;2022-07-22T02:08:20;101365.28;;;16.39;100.00
2178;BME280;1095;50.992;6.798;2022-07-22T02:13:57;101380.78;;;16.42;100.00
2178;BME280;1095;50.992;6.798;2022-07-22T02:16:24;101385.03;;;16.51;100.00
2178;BME280;1095;50.992;6.798;2022-07-22T02:18:51;101390.53;;;16.64;100.00
2178;BME280;1095;50.992;6.798;2022-07-22T02:21:17;101393.22;;;16.56;100.00
2178;BME280;1095;50.992;6.798;2022-07-22T02:23:44;101392.94;;;16.51;100.00
2178;BME280;1095;50.992;6.798;2022-07-22T02:26:12;101397.31;;;16.58;100.00
2178;BME280;1095;50.992;6.798;2022-07-22T02:28:39;101391.69;;;16.62;100.00
2178;BME280;1095;50.992;6.798;2022-07-22T02:31:06;101387.94;;;16.56;100.00
2178;BME280;1095;50.992;6.798;2022-07-22T02:33:32;101387.84;;;16.49;100.00
2178;BME280;1095;50.992;6.798;2022-07-22T02:35:59;101386.38;;;16.47;100.00
2178;BME280;1095;50.992;6.798;2022-07-22T02:38:26;101390.19;;;16.44;100.00
2178;BME280;1095;50.992;6.798;2022-07-22T02:40:52;101388.19;;;16.46;100.00
2178;BME280;1095;50.992;6.798;2022-07-22T02:43:21;101390.06;;;16.38;100.00
2178;BME280;1095;50.992;6.798;2022-07-22T02:45:48;101386.53;;;16.45;100.00
2178;BME280;1095;50.992;6.798;2022-07-22T02:48:16;101395.81;;;16.41;100.00
2178;BME280;1095;50.992;6.798;2022-07-22T02:50:45;101385.41;;;16.40;100.00
2178;BME280;1095;50.992;6.798;2022-07-22T02:53:12;101391.69;;;16.39;100.00
2178;BME280;1095;50.992;6.798;2022-07-22T02:55:39;101382.78;;;16.40;100.00
2178;BME280;1095;50.992;6.798;2022-07-22T02:58:06;101390.41;;;16.35;100.00
2178;BME280;1095;50.992;6.798;2022-07-22T03:00:36;101382.31;;;16.36;100.00
2178;BME280;1095;50.992;6.798;2022-07-22T03:03:04;101383.97;;;16.37;100.00
2178;BME280;1095;50.992;6.798;2022-07-22T03:05:30;101397.47;;;16.42;100.00
2178;BME280;1095;50.992;6.798;2022-07-22T03:07:57;101384.59;;;16.39;100.00
2178;BME280;1095;50.992;6.798;2022-07-22T03:10:24;101386.41;;;16.39;100.00
2178;BME280;1095;50.992;6.798;2022-07-22T03:12:51;101386.78;;;16.36;100.00
2178;BME280;1095;50.992;6.798;2022-07-22T03:15:17;101387.75;;;16.35;100.00
2178;BME280;1095;50.992;6.798;2022-07-22T03:17:45;101385.81;;;16.29;100.00
2178;BME280;1095;50.992;6.798;2022-07-22T03:20:12;101389.94;;;16.31;100.00
2178;BME280;1095;50.992;6.798;2022-07-22T03:22:39;101390.41;;;16.35;100.00
2178;BME280;1095;50.992;6.798;2022-07-22T03:25:06;101394.03;;;16.34;100.00
2178;BME280;1095;50.992;6.798;2022-07-22T03:27:33;101384.00;;;16.29;100.00
2178;BME280;1095;50.992;6.798;2022-07-22T03:29:59;101389.47;;;16.27;100.00
2178;BME280;1095;50.992;6.798;2022-07-22T03:32:26;101375.72;;;16.32;100.00
2178;BME280;1095;50.992;6.798;2022-07-22T03:34:54;101380.66;;;16.35;100.00
2178;BME280;1095;50.992;6.798;2022-07-22T03:37:21;101371.91;;;16.35;100.00
2178;BME280;1095;50.992;6.798;2022-07-22T03:39:48;101377.50;;;16.40;100.00
2178;BME280;1095;50.992;6.798;2022-07-22T03:42:15;101374.72;;;16.33;100.00
2178;BME280;1095;50.992;6.798;2022-07-22T03:44:42;101378.53;;;16.31;100.00
2178;BME280;1095;50.992;6.798;2022-07-22T03:47:08;101375.44;;;16.27;100.00
2178;BME280;1095;50.992;6.798;2022-07-22T03:49:35;101377.25;;;16.26;100.00
2178;BME280;1095;50.992;6.798;2022-07-22T03:52:04;101384.00;;;16.29;100.00
2178;BME280;1095;50.992;6.798;2022-07-22T03:54:30;101380.88;;;16.25;100.00
2178;BME280;1095;50.992;6.798;2022-07-22T03:56:57;101371.31;;;16.24;100.00
2178;BME280;1095;50.992;6.798;2022-07-22T03:59:23;101384.34;;;16.26;100.00
2178;BME280;1095;50.992;6.798;2022-07-22T04:01:52;101384.81;;;16.30;100.00
2178;BME280;1095;50.992;6.798;2022-07-22T04:04:19;101373.25;;;16.31;100.00
2178;BME280;1095;50.992;6.798;2022-07-22T04:06:46;101375.44;;;16.27;100.00
2178;BME280;1095;50.992;6.798;2022-07-22T04:09:14;101380.72;;;16.27;100.00
2178;BME280;1095;50.992;6.798;2022-07-22T04:11:41;101371.16;;;16.26;100.00
2178;BME280;1095;50.992;6.798;2022-07-22T04:14:07;101382.88;;;16.23;100.00
2178;BME280;1095;50.992;6.798;2022-07-22T04:16:34;101375.78;;;16.24;100.00
2178;BME280;1095;50.992;6.798;2022-07-22T04:19:01;101383.53;;;16.25;100.00
2178;BME280;1095;50.992;6.798;2022-07-22T04:21:28;101384.19;;;16.27;100.00
2178;BME280;1095;50.992;6.798;2022-07-22T04:23:58;101376.09;;;16.29;100.00
2178;BME280;1095;50.992;6.798;2022-07-22T04:26:26;101369.97;;;16.29;100.00
2178;BME280;1095;50.992;6.798;2022-07-22T04:28:53;101376.91;;;16.30;100.00
2178;BME280;1095;50.992;6.798;2022-07-22T04:31:19;101375.22;;;16.37;100.00
2178;BME280;1095;50.992;6.798;2022-07-22T04:33:46;101374.72;;;16.33;100.00
2178;BME280;1095;50.992;6.798;2022-07-22T04:36:13;101368.81;;;16.31;100.00
2178;BME280;1095;50.992;6.798;2022-07-22T04:38:39;101374.56;;;16.35;100.00
2178;BME280;1095;50.992;6.798;2022-07-22T04:41:06;101377.84;;;16.37;100.00
2178;BME280;1095;50.992;6.798;2022-07-22T04:43:34;101378.53;;;16.31;100.00
2178;BME280;1095;50.992;6.798;2022-07-22T04:46:01;101388.25;;;16.38;100.00
2178;BME280;1095;50.992;6.798;2022-07-22T04:48:28;101371.75;;;16.36;100.00
2178;BME280;1095;50.992;6.798;2022-07-22T04:50:58;101378.50;;;16.39;100.00
2178;BME280;1095;50.992;6.798;2022-07-22T04:53:25;101382.91;;;16.46;100.00
2178;BME280;1095;50.992;6.798;2022-07-22T04:55:52;101381.44;;;16.44;100.00
2178;BME280;1095;50.992;6.798;2022-07-22T04:58:19;101378.66;;;16.37;100.00
2178;BME280;1095;50.992;6.798;2022-07-22T05:00:51;101391.94;;;16.52;100.00
2178;BME280;1095;50.992;6.798;2022-07-22T05:06:44;101393.94;;;16.50;100.00
2178;BME280;1095;50.992;6.798;2022-07-22T05:13:02;101390.22;;;16.59;100.00
2178;BME280;1095;50.992;6.798;2022-07-22T05:16:07;101385.59;;;16.61;100.00
2178;BME280;1095;50.992;6.798;2022-07-22T05:27:19;101362.59;;;16.47;100.00
2178;BME280;1095;50.992;6.798;2022-07-22T05:29:49;101364.53;;;16.53;100.00
2178;BME280;1095;50.992;6.798;2022-07-22T05:32:51;101361.88;;;16.53;100.00
2178;BME280;1095;50.992;6.798;2022-07-22T05:35:39;101383.91;;;16.68;100.00
2178;BME280;1095;50.992;6.798;2022-07-22T05:38:31;101354.22;;;16.58;100.00
2178;BME280;1095;50.992;6.798;2022-07-22T05:44:25;101361.88;;;16.76;100.00
2178;BME280;1095;50.992;6.798;2022-07-22T05:49:48;101385.72;;;16.90;100.00
2178;BME280;1095;50.992;6.798;2022-07-22T05:52:21;101385.59;;;16.84;100.00
2178;BME280;1095;50.992;6.798;2022-07-22T05:54:48;101366.84;;;16.94;100.00
2178;BME280;1095;50.992;6.798;2022-07-22T05:57:22;101381.03;;;17.30;99.96
2178;BME280;1095;50.992;6.798;2022-07-22T06:00:09;101359.94;;;17.22;99.09
2178;BME280;1095;50.992;6.798;2022-07-22T06:05:18;101381.03;;;17.74;99.09
2178;BME280;1095;50.992;6.798;2022-07-22T06:07:44;101373.91;;;17.45;98.41
2178;BME280;1095;50.992;6.798;2022-07-22T06:10:11;101388.69;;;17.40;99.21
2178;BME280;1095;50.992;6.798;2022-07-22T06:12:38;101378.72;;;17.27;98.95
2178;BME280;1095;50.992;6.798;2022-07-22T06:15:05;101384.25;;;17.03;99.65
2178;BME280;1095;50.992;6.798;2022-07-22T06:17:32;101379.31;;;16.85;100.00
2178;BME280;1095;50.992;6.798;2022-07-22T06:19:59;101387.19;;;16.70;100.00
2178;BME280;1095;50.992;6.798;2022-07-22T06:22:27;101391.22;;;16.58;98.93
2178;BME280;1095;50.992;6.798;2022-07-22T06:24:53;101386.28;;;16.55;98.57
2178;BME280;1095;50.992;6.798;2022-07-22T06:27:20;101384.09;;;16.67;97.95
2178;BME280;1095;50.992;6.798;2022-07-22T06:29:47;101380.53;;;16.29;96.10
2178;BME280;1095;50.992;6.798;2022-07-22T06:32:13;101374.19;;;16.15;96.93
2178;BME280;1095;50.992;6.798;2022-07-22T06:34:40;101382.06;;;16.23;96.80
2178;BME280;1095;50.992;6.798;2022-07-22T06:37:07;101372.16;;;16.25;96.16
2178;BME280;1095;50.992;6.798;2022-07-22T06:39:35;101375.56;;;16.34;96.59
2178;BME280;1095;50.992;6.798;2022-07-22T06:42:02;101368.56;;;16.41;96.32
2178;BME280;1095;50.992;6.798;2022-07-22T06:44:28;101371.25;;;16.55;94.81
2178;BME280;1095;50.992;6.798;2022-07-22T06:46:55;101370.44;;;16.55;93.62
2178;BME280;1095;50.992;6.798;2022-07-22T06:49:22;101374.34;;;16.67;93.23
2178;BME280;1095;50.992;6.798;2022-07-22T06:51:48;101366.22;;;16.69;93.09
2178;BME280;1095;50.992;6.798;2022-07-22T06:54:16;101367.41;;;16.66;92.95
2178;BME280;1095;50.992;6.798;2022-07-22T06:56:44;101375.50;;;16.65;93.01
2178;BME280;1095;50.992;6.798;2022-07-22T06:59:16;101368.69;;;16.70;92.54
2178;BME280;1095;50.992;6.798;2022-07-22T07:01:43;101376.91;;;16.75;92.21
2178;BME280;1095;50.992;6.798;2022-07-22T07:04:10;101362.78;;;16.68;92.16
2178;BME280;1095;50.992;6.798;2022-07-22T07:06:36;101367.41;;;16.66;91.45
2178;BME280;1095;50.992;6.798;2022-07-22T07:09:03;101378.22;;;16.79;91.37
2178;BME280;1095;50.992;6.798;2022-07-22T07:11:30;101369.34;;;16.72;91.54
2178;BME280;1095;50.992;6.798;2022-07-22T07:14:01;101370.31;;;16.94;91.36
2178;BME280;1095;50.992;6.798;2022-07-22T07:16:27;101375.06;;;16.99;90.85
2178;BME280;1095;50.992;6.798;2022-07-22T07:18:54;101372.69;;;17.04;90.81
2178;BME280;1095;50.992;6.798;2022-07-22T07:21:21;101374.44;;;16.97;90.57
2178;BME280;1095;50.992;6.798;2022-07-22T07:23:48;101372.25;;;17.15;90.42
2178;BME280;1095;50.992;6.798;2022-07-22T07:26:15;101371.25;;;17.31;90.51
2178;BME280;1095;50.992;6.798;2022-07-22T07:28:41;101365.34;;;17.43;89.53
2178;BME280;1095;50.992;6.798;2022-07-22T07:31:10;101368.72;;;17.37;89.58
2178;BME280;1095;50.992;6.798;2022-07-22T07:33:38;101362.47;;;17.59;89.89
2178;BME280;1095;50.992;6.798;2022-07-22T07:36:06;101362.22;;;17.54;89.56
2178;BME280;1095;50.992;6.798;2022-07-22T07:38:32;101366.25;;;17.65;88.68
2178;BME280;1095;50.992;6.798;2022-07-22T07:41:00;101361.31;;;17.77;88.36
2178;BME280;1095;50.992;6.798;2022-07-22T07:43:27;101366.69;;;17.54;89.42
2178;BME280;1095;50.992;6.798;2022-07-22T07:45:53;101364.69;;;17.85;89.24
2178;BME280;1095;50.992;6.798;2022-07-22T07:48:23;101361.97;;;18.00;87.61
2178;BME280;1095;50.992;6.798;2022-07-22T07:50:50;101372.91;;;17.76;87.00
2178;BME280;1095;50.992;6.798;2022-07-22T07:53:17;101377.22;;;17.98;87.09
2178;BME280;1095;50.992;6.798;2022-07-22T07:55:44;101368.03;;;17.94;86.48
2178;BME280;1095;50.992;6.798;2022-07-22T07:58:12;101371.97;;;18.19;86.61
2178;BME280;1095;50.992;6.798;2022-07-22T08:00:39;101368.19;;;18.29;85.48
2178;BME280;1095;50.992;6.798;2022-07-22T08:03:08;101371.09;;;18.34;83.94
2178;BME280;1095;50.992;6.798;2022-07-22T08:05:37;101381.84;;;18.11;86.47
2178;BME280;1095;50.992;6.798;2022-07-22T08:08:06;101361.59;;;18.39;85.32
2178;BME280;1095;50.992;6.798;2022-07-22T08:10:32;101361.63;;;18.46;82.56
2178;BME280;1095;50.992;6.798;2022-07-22T08:12:59;101346.75;;;18.66;83.33
2178;BME280;1095;50.992;6.798;2022-07-22T08:15:26;101354.75;;;18.51;83.53
2178;BME280;1095;50.992;6.798;2022-07-22T08:17:55;101361.88;;;19.00;82.81
2178;BME280;1095;50.992;6.798;2022-07-22T08:20:23;101354.81;;;19.07;82.34
2178;BME280;1095;50.992;6.798;2022-07-22T08:22:52;101364.97;;;19.04;81.36
2178;BME280;1095;50.992;6.798;2022-07-22T08:25:19;101356.88;;;19.12;81.17
2178;BME280;1095;50.992;6.798;2022-07-22T08:27:46;101356.19;;;19.31;80.42
2178;BME280;1095;50.992;6.798;2022-07-22T08:30:13;101362.75;;;19.42;80.36
2178;BME280;1095;50.992;6.798;2022-07-22T08:32:40;101369.91;;;19.07;81.21
2178;BME280;1095;50.992;6.798;2022-07-22T08:35:08;101359.53;;;19.12;81.75
2178;BME280;1095;50.992;6.798;2022-07-22T08:37:35;101361.72;;;19.71;80.82
2178;BME280;1095;50.992;6.798;2022-07-22T08:40:08;101355.00;;;19.75;78.09
2178;BME280;1095;50.992;6.798;2022-07-22T08:42:37;101360.13;;;19.83;79.39
2178;BME280;1095;50.992;6.798;2022-07-22T08:45:05;101359.09;;;19.91;78.65
2178;BME280;1095;50.992;6.798;2022-07-22T08:47:32;101348.34;;;20.12;77.86
2178;BME280;1095;50.992;6.798;2022-07-22T08:49:58;101349.53;;;19.96;78.07
2178;BME280;1095;50.992;6.798;2022-07-22T08:52:25;101347.94;;;20.08;78.55
2178;BME280;1095;50.992;6.798;2022-07-22T08:54:52;101346.72;;;20.17;77.32
2178;BME280;1095;50.992;6.798;2022-07-22T08:57:20;101336.25;;;20.03;77.53
2178;BME280;1095;50.992;6.798;2022-07-22T08:59:51;101345.56;;;20.66;77.70
2178;BME280;1095;50.992;6.798;2022-07-22T09:02:19;101342.47;;;20.43;75.49
2178;BME280;1095;50.992;6.798;2022-07-22T09:04:52;101342.91;;;20.46;76.15
2178;BME280;1095;50.992;6.798;2022-07-22T09:07:30;101346.41;;;20.73;75.17
2178;BME280;1095;50.992;6.798;2022-07-22T09:10:00;101359.63;;;21.19;76.32
2178;BME280;1095;50.992;6.798;2022-07-22T09:12:29;101355.28;;;21.38;73.08
2178;BME280;1095;50.992;6.798;2022-07-22T09:14:59;101341.00;;;21.13;73.52
2178;BME280;1095;50.992;6.798;2022-07-22T09:17:29;101350.84;;;21.12;74.10
2178;BME280;1095;50.992;6.798;2022-07-22T09:19:56;101338.00;;;20.70;74.17
2178;BME280;1095;50.992;6.798;2022-07-22T09:22:31;101341.81;;;20.34;75.86
2178;BME280;1095;50.992;6.798;2022-07-22T09:24:58;101338.63;;;20.65;76.02
2178;BME280;1095;50.992;6.798;2022-07-22T09:27:26;101337.75;;;20.91;74.99
2178;BME280;1095;50.992;6.798;2022-07-22T09:29:55;101334.88;;;21.06;74.36
2178;BME280;1095;50.992;6.798;2022-07-22T09:32:22;101334.53;;;20.76;73.60
2178;BME280;1095;50.992;6.798;2022-07-22T09:34:49;101333.72;;;20.69;74.13
2178;BME280;1095;50.992;6.798;2022-07-22T09:37:20;101336.13;;;20.31;75.31
2178;BME280;1095;50.992;6.798;2022-07-22T09:39:47;101345.75;;;20.51;75.49
2178;BME280;1095;50.992;6.798;2022-07-22T09:42:13;101352.91;;;21.24;75.28
2178;BME280;1095;50.992;6.798;2022-07-22T09:44:41;101352.09;;;21.23;73.29
2178;BME280;1095;50.992;6.798;2022-07-22T09:47:26;101352.50;;;20.94;74.65
2178;BME280;1095;50.992;6.798;2022-07-22T09:49:56;101340.44;;;20.84;75.58
2178;BME280;1095;50.992;6.798;2022-07-22T09:52:22;101344.97;;;20.71;75.67
2178;BME280;1095;50.992;6.798;2022-07-22T09:54:50;101346.19;;;20.75;76.47
2178;BME280;1095;50.992;6.798;2022-07-22T09:57:18;101339.63;;;20.77;75.16
2178;BME280;1095;50.992;6.798;2022-07-22T09:59:44;101335.28;;;21.03;75.89
2178;BME280;1095;50.992;6.798;2022-07-22T10:02:17;101330.97;;;21.15;74.45
2178;BME280;1095;50.992;6.798;2022-07-22T10:04:46;101321.75;;;21.17;74.20
2178;BME280;1095;50.992;6.798;2022-07-22T10:07:16;101321.72;;;21.37;74.21
2178;BME280;1095;50.992;6.798;2022-07-22T12:34:46;101224.69;;;22.89;66.47
2178;BME280;1095;50.992;6.798;2022-07-22T12:37:16;101202.22;;;23.15;66.75
2178;BME280;1095;50.992;6.798;2022-07-22T12:39:57;101216.13;;;23.17;64.81
2178;BME280;1095;50.992;6.798;2022-07-22T12:42:25;101210.03;;;22.73;66.12
2178;BME280;1095;50.992;6.798;2022-07-22T12:44:54;101213.44;;;23.35;65.28
2178;BME280;1095;50.992;6.798;2022-07-22T12:50:21;101191.25;;;23.05;64.81
2178;BME280;1095;50.992;6.798;2022-07-22T12:52:54;101196.03;;;23.74;64.33
2178;BME280;1095;50.992;6.798;2022-07-22T12:55:21;101214.69;;;23.93;62.99
2178;BME280;1095;50.992;6.798;2022-07-22T12:57:49;101181.72;;;23.69;62.92
2178;BME280;1095;50.992;6.798;2022-07-22T13:00:19;101172.75;;;23.52;63.01
2178;BME280;1095;50.992;6.798;2022-07-22T13:03:41;101183.84;;;23.37;64.62
2178;BME280;1095;50.992;6.798;2022-07-22T13:06:45;101172.25;;;23.13;64.51
2178;BME280;1095;50.992;6.798;2022-07-22T13:09:31;101165.19;;;23.48;64.17
2178;BME280;1095;50.992;6.798;2022-07-22T13:12:01;101181.78;;;23.92;62.78
2178;BME280;1095;50.992;6.798;2022-07-22T13:14:28;101167.84;;;24.02;62.43
2178;BME280;1095;50.992;6.798;2022-07-22T13:16:55;101158.88;;;23.85;62.07
2178;BME280;1095;50.992;6.798;2022-07-22T13:19:25;101161.63;;;23.55;63.08
2178;BME280;1095;50.992;6.798;2022-07-22T13:21:56;101168.50;;;22.84;64.85
2178;BME280;1095;50.992;6.798;2022-07-22T13:24:43;101181.19;;;22.89;66.00
2178;BME280;1095;50.992;6.798;2022-07-22T13:27:26;101151.91;;;22.64;65.10
2178;BME280;1095;50.992;6.798;2022-07-22T13:29:53;101171.44;;;23.12;64.06
2178;BME280;1095;50.992;6.798;2022-07-22T13:32:31;101145.19;;;23.09;65.13
2178;BME280;1095;50.992;6.798;2022-07-22T13:35:05;101166.06;;;23.72;63.60
2178;BME280;1095;50.992;6.798;2022-07-22T13:37:55;101175.69;;;23.02;64.36
2178;BME280;1095;50.992;6.798;2022-07-22T13:40:32;101155.16;;;23.02;64.43
2178;BME280;1095;50.992;6.798;2022-07-22T13:43:01;101171.47;;;23.24;63.70
2178;BME280;1095;50.992;6.798;2022-07-22T13:45:40;101161.69;;;23.18;65.26
2178;BME280;1095;50.992;6.798;2022-07-22T13:48:09;101127.25;;;23.28;63.53
2178;BME280;1095;50.992;6.798;2022-07-22T13:50:38;101133.19;;;23.30;64.45
2178;BME280;1095;50.992;6.798;2022-07-22T13:53:10;101138.34;;;23.43;63.10
2178;BME280;1095;50.992;6.798;2022-07-22T13:55:43;101129.66;;;23.48;64.02
2178;BME280;1095;50.992;6.798;2022-07-22T13:58:13;101149.09;;;23.67;62.80
2178;BME280;1095;50.992;6.798;2022-07-22T14:00:40;101145.28;;;23.33;63.29
2178;BME280;1095;50.992;6.798;2022-07-22T14:03:10;101137.97;;;23.81;62.85
2178;BME280;1095;50.992;6.798;2022-07-22T14:05:40;101141.13;;;23.90;61.40
2178;BME280;1095;50.992;6.798;2022-07-22T14:08:17;101150.41;;;24.11;61.02
2178;BME280;1095;50.992;6.798;2022-07-22T14:13:39;101145.53;;;23.85;61.36
2178;BME280;1095;50.992;6.798;2022-07-22T14:16:14;101142.16;;;24.12;60.83
2178;BME280;1095;50.992;6.798;2022-07-22T14:18:58;101152.53;;;24.09;59.75
2178;BME280;1095;50.992;6.798;2022-07-22T14:22:29;101148.31;;;24.01;60.89
2178;BME280;1095;50.992;6.798;2022-07-22T14:24:41;101125.91;;;24.02;59.40
2178;BME280;1095;50.992;6.798;2022-07-22T14:27:08;101153.53;;;24.20;58.92
2178;BME280;1095;50.992;6.798;2022-07-22T14:29:50;101123.66;;;24.23;58.25
2178;BME280;1095;50.992;6.798;2022-07-22T14:32:17;101129.00;;;24.23;59.09
2178;BME280;1095;50.992;6.798;2022-07-22T14:37:16;101142.16;;;24.12;59.34
2178;BME280;1095;50.992;6.798;2022-07-22T14:39:44;101142.97;;;24.25;59.02
2178;BME280;1095;50.992;6.798;2022-07-22T14:42:11;101125.97;;;23.72;61.20
2178;BME280;1095;50.992;6.798;2022-07-22T14:44:38;101138.53;;;24.19;60.54
2178;BME280;1095;50.992;6.798;2022-07-22T14:47:05;101128.91;;;24.06;60.04
2178;BME280;1095;50.992;6.798;2022-07-22T14:49:34;101146.44;;;24.13;60.00
2178;BME280;1095;50.992;6.798;2022-07-22T14:52:01;101147.75;;;23.99;60.56
2178;BME280;1095;50.992;6.798;2022-07-22T14:54:28;101114.94;;;23.69;60.21
2178;BME280;1095;50.992;6.798;2022-07-22T14:56:56;101103.09;;;23.65;59.39
2178;BME280;1095;50.992;6.798;2022-07-22T14:59:23;101105.19;;;23.74;59.71
2178;BME280;1095;50.992;6.798;2022-07-22T15:01:53;101103.69;;;23.90;59.60
2178;BME280;1095;50.992;6.798;2022-07-22T15:04:20;101113.69;;;24.06;60.54
2178;BME280;1095;50.992;6.798;2022-07-22T15:06:47;101115.31;;;23.96;59.22
2178;BME280;1095;50.992;6.798;2022-07-22T15:09:13;101116.69;;;24.22;60.61
2178;BME280;1095;50.992;6.798;2022-07-22T15:11:40;101110.66;;;24.38;59.92
2178;BME280;1095;50.992;6.798;2022-07-22T15:14:08;101127.97;;;24.24;58.97
2178;BME280;1095;50.992;6.798;2022-07-22T15:16:35;101115.19;;;24.26;59.35
2178;BME280;1095;50.992;6.798;2022-07-22T15:19:02;101122.75;;;24.29;59.01
2178;BME280;1095;50.992;6.798;2022-07-22T15:21:30;101115.19;;;24.14;59.43
2178;BME280;1095;50.992;6.798;2022-07-22T15:24:01;101100.22;;;24.01;59.25
2178;BME280;1095;50.992;6.798;2022-07-22T15:26:27;101106.00;;;24.33;59.53
2178;BME280;1095;50.992;6.798;2022-07-22T15:28:54;101105.53;;;24.13;59.24
2178;BME280;1095;50.992;6.798;2022-07-22T15:31:25;101087.66;;;23.90;58.79
2178;BME280;1095;50.992;6.798;2022-07-22T15:33:55;101078.69;;;23.73;59.66
2178;BME280;1095;50.992;6.798;2022-07-22T15:36:22;101088.09;;;23.64;60.60
2178;BME280;1095;50.992;6.798;2022-07-22T15:38:53;101065.59;;;23.60;61.82
2178;BME280;1095;50.992;6.798;2022-07-22T15:41:20;101057.03;;;23.28;61.58
2178;BME280;1095;50.992;6.798;2022-07-22T15:43:50;101064.59;;;23.42;62.18
2178;BME280;1095;50.992;6.798;2022-07-22T15:46:16;101064.75;;;23.71;61.54
2178;BME280;1095;50.992;6.798;2022-07-22T15:48:45;101053.03;;;23.72;61.54
2178;BME280;1095;50.992;6.798;2022-07-22T15:51:14;101066.94;;;23.50;61.86
2178;BME280;1095;50.992;6.798;2022-07-22T15:53:41;101067.75;;;23.51;61.46
2178;BME280;1095;50.992;6.798;2022-07-22T15:56:08;101050.88;;;23.27;62.42
2178;BME280;1095;50.992;6.798;2022-07-22T15:58:35;101054.75;;;23.66;62.34
2178;BME280;1095;50.992;6.798;2022-07-22T16:01:28;101035.25;;;23.89;61.25
2178;BME280;1095;50.992;6.798;2022-07-22T16:04:07;101042.66;;;23.52;60.81
2178;BME280;1095;50.992;6.798;2022-07-22T16:06:45;101039.63;;;23.37;62.29
2178;BME280;1095;50.992;6.798;2022-07-22T16:09:14;101038.91;;;23.30;61.93
2178;BME280;1095;50.992;6.798;2022-07-22T16:11:41;101026.47;;;23.12;62.45
2178;BME280;1095;50.992;6.798;2022-07-22T16:14:08;101030.66;;;23.08;62.50
2178;BME280;1095;50.992;6.798;2022-07-22T16:16:34;101034.38;;;23.30;62.80
2178;BME280;1095;50.992;6.798;2022-07-22T16:22:29;101023.06;;;22.93;63.24
2178;BME280;1095;50.992;6.798;2022-07-22T16:24:55;101038.56;;;23.26;62.73
2178;BME280;1095;50.992;6.798;2022-07-22T16:27:22;101033.69;;;23.11;62.87
2178;BME280;1095;50.992;6.798;2022-07-22T16:32:20;101035.94;;;22.96;63.06
2178;BME280;1095;50.992;6.798;2022-07-22T16:34:47;101045.03;;;23.07;63.26
2178;BME280;1095;50.992;6.798;2022-07-22T16:37:14;101035.16;;;23.07;62.75